sensor_id;sensor_type;location;lat;lon;timestamp;temperature;humidity
20866;DHT22;10593;48.398;10.698;2022-11-13T00:00:51;8.90;63.20
20866;DHT22;10593;48.398;10.698;2022-11-13T00:03:17;8.90;63.20
20866;DHT22;10593;48.398;10.698;2022-11-13T00:05:43;8.90;63.20
20866;DHT22;10593;48.398;10.698;2022-11-13T00:08:08;8.90;63.10
20866;DHT22;10593;48.398;10.698;2022-11-13T00:10:34;8.90;62.90
20866;DHT22;10593;48.398;10.698;2022-11-13T00:13:00;8.90;62.60
20866;DHT22;10593;48.398;10.698;2022-11-13T00:15:26;8.90;62.30
20866;DHT22;10593;48.398;10.698;2022-11-13T00:17:52;8.80;62.10
20866;DHT22;10593;48.398;10.698;2022-11-13T00:20:18;8.80;62.00
20866;DHT22;10593;48.398;10.698;2022-11-13T00:22:44;8.80;62.20
20866;DHT22;10593;48.398;10.698;2022-11-13T00:25:10;8.70;62.00
20866;DHT22;10593;48.398;10.698;2022-11-13T00:27:35;8.70;62.20
20866;DHT22;10593;48.398;10.698;2022-11-13T00:30:02;8.70;62.50
20866;DHT22;10593;48.398;10.698;2022-11-13T00:32:28;8.70;62.70
20866;DHT22;10593;48.398;10.698;2022-11-13T00:34:54;8.60;62.70
20866;DHT22;10593;48.398;10.698;2022-11-13T00:37:19;8.60;62.90
20866;DHT22;10593;48.398;10.698;2022-11-13T00:39:45;8.60;62.80
20866;DHT22;10593;48.398;10.698;2022-11-13T00:42:11;8.70;62.70
20866;DHT22;10593;48.398;10.698;2022-11-13T00:44:36;8.70;62.70
20866;DHT22;10593;48.398;10.698;2022-11-13T00:47:02;8.60;62.60
20866;DHT22;10593;48.398;10.698;2022-11-13T00:49:28;8.70;62.60
20866;DHT22;10593;48.398;10.698;2022-11-13T00:51:53;8.60;62.50
20866;DHT22;10593;48.398;10.698;2022-11-13T00:54:19;8.70;62.50
20866;DHT22;10593;48.398;10.698;2022-11-13T00:56:45;8.70;62.30
20866;DHT22;10593;48.398;10.698;2022-11-13T00:59:10;8.70;62.30
20866;DHT22;10593;48.398;10.698;2022-11-13T01:01:36;8.70;62.20
20866;DHT22;10593;48.398;10.698;2022-11-13T01:04:02;8.70;62.60
20866;DHT22;10593;48.398;10.698;2022-11-13T01:06:28;8.70;62.10
20866;DHT22;10593;48.398;10.698;2022-11-13T01:08:55;8.70;62.10
20866;DHT22;10593;48.398;10.698;2022-11-13T01:11:24;8.60;62.00
20866;DHT22;10593;48.398;10.698;2022-11-13T01:13:51;8.70;62.10
20866;DHT22;10593;48.398;10.698;2022-11-13T01:16:20;8.60;62.00
20866;DHT22;10593;48.398;10.698;2022-11-13T01:18:47;8.70;61.90
20866;DHT22;10593;48.398;10.698;2022-11-13T01:21:17;8.60;61.80
20866;DHT22;10593;48.398;10.698;2022-11-13T01:23:45;8.60;61.90
20866;DHT22;10593;48.398;10.698;2022-11-13T01:26:15;8.60;61.90
20866;DHT22;10593;48.398;10.698;2022-11-13T01:28:55;8.60;61.90
20866;DHT22;10593;48.398;10.698;2022-11-13T01:31:25;8.60;61.70
20866;DHT22;10593;48.398;10.698;2022-11-13T01:33:53;8.60;61.70
20866;DHT22;10593;48.398;10.698;2022-11-13T01:36:26;8.60;61.80
20866;DHT22;10593;48.398;10.698;2022-11-13T01:38:52;8.60;62.40
20866;DHT22;10593;48.398;10.698;2022-11-13T01:41:25;8.50;61.60
20866;DHT22;10593;48.398;10.698;2022-11-13T01:43:53;8.50;61.50
20866;DHT22;10593;48.398;10.698;2022-11-13T01:46:35;8.50;61.60
20866;DHT22;10593;48.398;10.698;2022-11-13T01:54:09;8.50;61.70
20866;DHT22;10593;48.398;10.698;2022-11-13T01:56:39;8.50;61.80
20866;DHT22;10593;48.398;10.698;2022-11-13T01:59:10;8.50;61.90
20866;DHT22;10593;48.398;10.698;2022-11-13T02:01:38;8.50;61.90
20866;DHT22;10593;48.398;10.698;2022-11-13T02:04:04;8.50;62.00
20866;DHT22;10593;48.398;10.698;2022-11-13T02:06:39;8.50;61.90
20866;DHT22;10593;48.398;10.698;2022-11-13T02:09:09;8.40;61.80
20866;DHT22;10593;48.398;10.698;2022-11-13T02:11:37;8.40;61.70
20866;DHT22;10593;48.398;10.698;2022-11-13T02:14:04;8.40;61.70
20866;DHT22;10593;48.398;10.698;2022-11-13T02:16:33;8.40;61.70
20866;DHT22;10593;48.398;10.698;2022-11-13T02:19:04;8.40;61.80
20866;DHT22;10593;48.398;10.698;2022-11-13T02:21:42;8.40;61.90
20866;DHT22;10593;48.398;10.698;2022-11-13T02:24:33;8.40;61.90
20866;DHT22;10593;48.398;10.698;2022-11-13T02:27:05;8.40;62.00
20866;DHT22;10593;48.398;10.698;2022-11-13T02:29:34;8.40;62.10
20866;DHT22;10593;48.398;10.698;2022-11-13T02:32:01;8.40;62.40
20866;DHT22;10593;48.398;10.698;2022-11-13T02:34:27;8.40;62.10
20866;DHT22;10593;48.398;10.698;2022-11-13T02:36:52;8.50;62.20
20866;DHT22;10593;48.398;10.698;2022-11-13T02:39:18;8.40;61.80
20866;DHT22;10593;48.398;10.698;2022-11-13T02:41:44;8.40;61.80
20866;DHT22;10593;48.398;10.698;2022-11-13T02:44:09;8.40;61.80
20866;DHT22;10593;48.398;10.698;2022-11-13T02:46:36;8.40;61.90
20866;DHT22;10593;48.398;10.698;2022-11-13T02:49:02;8.40;62.00
20866;DHT22;10593;48.398;10.698;2022-11-13T02:51:28;8.40;62.10
20866;DHT22;10593;48.398;10.698;2022-11-13T02:53:54;8.40;62.10
20866;DHT22;10593;48.398;10.698;2022-11-13T02:56:20;8.40;62.20
20866;DHT22;10593;48.398;10.698;2022-11-13T02:58:46;8.40;62.10
20866;DHT22;10593;48.398;10.698;2022-11-13T03:01:11;8.40;62.00
20866;DHT22;10593;48.398;10.698;2022-11-13T03:03:38;8.40;62.00
20866;DHT22;10593;48.398;10.698;2022-11-13T03:06:04;8.40;62.00
20866;DHT22;10593;48.398;10.698;2022-11-13T03:08:30;8.40;62.00
20866;DHT22;10593;48.398;10.698;2022-11-13T03:10:56;8.40;62.10
20866;DHT22;10593;48.398;10.698;2022-11-13T03:13:22;8.40;62.10
20866;DHT22;10593;48.398;10.698;2022-11-13T03:15:48;8.40;62.10
20866;DHT22;10593;48.398;10.698;2022-11-13T03:18:13;8.40;62.20
20866;DHT22;10593;48.398;10.698;2022-11-13T03:20:41;8.40;62.10
20866;DHT22;10593;48.398;10.698;2022-11-13T03:23:08;8.40;62.10
20866;DHT22;10593;48.398;10.698;2022-11-13T03:25:34;8.40;62.10
20866;DHT22;10593;48.398;10.698;2022-11-13T03:27:59;8.40;62.00
20866;DHT22;10593;48.398;10.698;2022-11-13T03:30:26;8.40;62.00
20866;DHT22;10593;48.398;10.698;2022-11-13T03:32:55;8.40;61.80
20866;DHT22;10593;48.398;10.698;2022-11-13T03:35:22;8.40;61.80
20866;DHT22;10593;48.398;10.698;2022-11-13T03:37:49;8.40;61.80
20866;DHT22;10593;48.398;10.698;2022-11-13T03:40:15;8.40;61.80
20866;DHT22;10593;48.398;10.698;2022-11-13T03:42:41;8.40;61.80
20866;DHT22;10593;48.398;10.698;2022-11-13T03:45:07;8.40;61.80
20866;DHT22;10593;48.398;10.698;2022-11-13T03:47:33;8.30;61.70
20866;DHT22;10593;48.398;10.698;2022-11-13T03:49:59;8.40;61.70
20866;DHT22;10593;48.398;10.698;2022-11-13T03:52:25;8.30;61.60
20866;DHT22;10593;48.398;10.698;2022-11-13T03:54:50;8.30;61.40
20866;DHT22;10593;48.398;10.698;2022-11-13T03:57:16;8.30;61.40
20866;DHT22;10593;48.398;10.698;2022-11-13T03:59:42;8.40;61.50
20866;DHT22;10593;48.398;10.698;2022-11-13T04:02:07;8.30;61.40
20866;DHT22;10593;48.398;10.698;2022-11-13T04:04:33;8.30;61.40
20866;DHT22;10593;48.398;10.698;2022-11-13T04:06:59;8.30;61.30
20866;DHT22;10593;48.398;10.698;2022-11-13T04:09:24;8.30;61.30
20866;DHT22;10593;48.398;10.698;2022-11-13T04:11:50;8.30;61.40
20866;DHT22;10593;48.398;10.698;2022-11-13T04:14:16;8.30;61.30
20866;DHT22;10593;48.398;10.698;2022-11-13T04:16:41;8.30;61.40
20866;DHT22;10593;48.398;10.698;2022-11-13T04:19:07;8.20;61.30
20866;DHT22;10593;48.398;10.698;2022-11-13T04:21:33;8.30;61.30
20866;DHT22;10593;48.398;10.698;2022-11-13T04:23:58;8.30;61.30
20866;DHT22;10593;48.398;10.698;2022-11-13T04:26:24;8.20;61.10
20866;DHT22;10593;48.398;10.698;2022-11-13T04:28:50;8.30;61.30
20866;DHT22;10593;48.398;10.698;2022-11-13T04:31:15;8.20;61.10
20866;DHT22;10593;48.398;10.698;2022-11-13T04:33:41;8.20;60.80
20866;DHT22;10593;48.398;10.698;2022-11-13T04:36:07;8.20;60.60
20866;DHT22;10593;48.398;10.698;2022-11-13T04:38:33;8.10;60.50
20866;DHT22;10593;48.398;10.698;2022-11-13T04:40:58;8.10;60.60
20866;DHT22;10593;48.398;10.698;2022-11-13T04:43:42;8.10;60.60
20866;DHT22;10593;48.398;10.698;2022-11-13T04:46:08;8.00;61.20
20866;DHT22;10593;48.398;10.698;2022-11-13T04:48:34;8.00;60.50
20866;DHT22;10593;48.398;10.698;2022-11-13T04:50:59;8.00;60.70
20866;DHT22;10593;48.398;10.698;2022-11-13T04:53:25;7.90;60.80
20866;DHT22;10593;48.398;10.698;2022-11-13T04:55:52;8.00;61.20
20866;DHT22;10593;48.398;10.698;2022-11-13T04:58:18;7.90;61.30
20866;DHT22;10593;48.398;10.698;2022-11-13T05:00:43;7.90;61.40
20866;DHT22;10593;48.398;10.698;2022-11-13T05:03:09;8.00;61.70
20866;DHT22;10593;48.398;10.698;2022-11-13T05:05:35;8.00;61.70
20866;DHT22;10593;48.398;10.698;2022-11-13T05:08:00;8.00;61.70
20866;DHT22;10593;48.398;10.698;2022-11-13T05:10:26;8.00;61.70
20866;DHT22;10593;48.398;10.698;2022-11-13T05:12:55;8.00;61.60
20866;DHT22;10593;48.398;10.698;2022-11-13T05:15:21;8.00;61.60
20866;DHT22;10593;48.398;10.698;2022-11-13T05:17:50;8.00;61.50
20866;DHT22;10593;48.398;10.698;2022-11-13T05:20:16;8.00;61.50
20866;DHT22;10593;48.398;10.698;2022-11-13T05:22:41;8.00;61.30
20866;DHT22;10593;48.398;10.698;2022-11-13T05:25:07;8.00;61.20
20866;DHT22;10593;48.398;10.698;2022-11-13T05:27:33;8.00;61.20
20866;DHT22;10593;48.398;10.698;2022-11-13T05:29:59;8.10;61.20
20866;DHT22;10593;48.398;10.698;2022-11-13T05:32:24;8.00;61.00
20866;DHT22;10593;48.398;10.698;2022-11-13T05:34:50;8.00;60.90
20866;DHT22;10593;48.398;10.698;2022-11-13T05:37:16;8.00;60.90
20866;DHT22;10593;48.398;10.698;2022-11-13T05:39:41;8.00;60.90
20866;DHT22;10593;48.398;10.698;2022-11-13T05:42:07;8.00;60.80
20866;DHT22;10593;48.398;10.698;2022-11-13T05:44:33;8.00;60.70
20866;DHT22;10593;48.398;10.698;2022-11-13T05:46:58;8.00;60.70
20866;DHT22;10593;48.398;10.698;2022-11-13T05:49:24;8.00;60.70
20866;DHT22;10593;48.398;10.698;2022-11-13T05:51:53;8.00;61.40
20866;DHT22;10593;48.398;10.698;2022-11-13T05:54:19;8.00;60.60
20866;DHT22;10593;48.398;10.698;2022-11-13T05:56:44;8.00;60.60
20866;DHT22;10593;48.398;10.698;2022-11-13T05:59:10;8.00;60.60
20866;DHT22;10593;48.398;10.698;2022-11-13T06:01:38;8.00;60.50
20866;DHT22;10593;48.398;10.698;2022-11-13T06:04:05;8.00;60.60
20866;DHT22;10593;48.398;10.698;2022-11-13T06:06:32;8.00;60.60
20866;DHT22;10593;48.398;10.698;2022-11-13T06:09:00;7.90;60.50
20866;DHT22;10593;48.398;10.698;2022-11-13T06:11:29;7.90;60.50
20866;DHT22;10593;48.398;10.698;2022-11-13T06:13:55;7.90;60.50
20866;DHT22;10593;48.398;10.698;2022-11-13T06:16:25;7.90;60.70
20866;DHT22;10593;48.398;10.698;2022-11-13T06:18:57;8.00;60.80
20866;DHT22;10593;48.398;10.698;2022-11-13T06:21:26;8.00;60.90
20866;DHT22;10593;48.398;10.698;2022-11-13T06:23:55;8.00;60.90
20866;DHT22;10593;48.398;10.698;2022-11-13T06:26:24;8.00;60.90
20866;DHT22;10593;48.398;10.698;2022-11-13T06:28:58;7.90;60.80
20866;DHT22;10593;48.398;10.698;2022-11-13T06:31:27;8.00;60.60
20866;DHT22;10593;48.398;10.698;2022-11-13T06:33:56;8.00;60.50
20866;DHT22;10593;48.398;10.698;2022-11-13T06:36:28;7.90;60.40
20866;DHT22;10593;48.398;10.698;2022-11-13T06:38:55;7.90;60.40
20866;DHT22;10593;48.398;10.698;2022-11-13T06:41:24;7.90;60.40
20866;DHT22;10593;48.398;10.698;2022-11-13T06:43:51;7.90;60.40
20866;DHT22;10593;48.398;10.698;2022-11-13T06:46:20;8.00;60.60
20866;DHT22;10593;48.398;10.698;2022-11-13T06:48:47;7.90;60.50
20866;DHT22;10593;48.398;10.698;2022-11-13T06:51:19;7.90;60.50
20866;DHT22;10593;48.398;10.698;2022-11-13T06:53:46;8.00;60.60
20866;DHT22;10593;48.398;10.698;2022-11-13T06:56:13;8.00;60.60
20866;DHT22;10593;48.398;10.698;2022-11-13T06:58:39;7.90;60.50
20866;DHT22;10593;48.398;10.698;2022-11-13T07:01:13;8.00;60.60
20866;DHT22;10593;48.398;10.698;2022-11-13T07:03:41;8.00;60.50
20866;DHT22;10593;48.398;10.698;2022-11-13T07:06:18;7.90;60.40
20866;DHT22;10593;48.398;10.698;2022-11-13T07:08:46;8.00;60.60
20866;DHT22;10593;48.398;10.698;2022-11-13T07:11:17;7.90;60.50
20866;DHT22;10593;48.398;10.698;2022-11-13T07:13:45;8.00;60.60
20866;DHT22;10593;48.398;10.698;2022-11-13T07:16:12;7.90;60.50
20866;DHT22;10593;48.398;10.698;2022-11-13T07:18:39;8.00;60.50
20866;DHT22;10593;48.398;10.698;2022-11-13T07:21:07;7.90;60.40
20866;DHT22;10593;48.398;10.698;2022-11-13T07:23:35;8.00;60.60
20866;DHT22;10593;48.398;10.698;2022-11-13T07:26:10;8.00;60.50
20866;DHT22;10593;48.398;10.698;2022-11-13T07:28:36;8.00;60.50
20866;DHT22;10593;48.398;10.698;2022-11-13T07:31:02;8.00;60.60
20866;DHT22;10593;48.398;10.698;2022-11-13T07:33:29;8.00;60.50
20866;DHT22;10593;48.398;10.698;2022-11-13T07:35:56;8.00;60.40
20866;DHT22;10593;48.398;10.698;2022-11-13T07:38:22;8.00;60.40
20866;DHT22;10593;48.398;10.698;2022-11-13T07:40:49;8.00;60.40
20866;DHT22;10593;48.398;10.698;2022-11-13T07:43:14;8.00;60.40
20866;DHT22;10593;48.398;10.698;2022-11-13T07:45:40;8.00;60.50
20866;DHT22;10593;48.398;10.698;2022-11-13T07:48:06;8.00;60.40
20866;DHT22;10593;48.398;10.698;2022-11-13T07:50:34;8.00;60.50
20866;DHT22;10593;48.398;10.698;2022-11-13T07:53:03;8.00;60.40
20866;DHT22;10593;48.398;10.698;2022-11-13T07:55:32;8.00;60.40
20866;DHT22;10593;48.398;10.698;2022-11-13T07:57:59;8.00;60.40
20866;DHT22;10593;48.398;10.698;2022-11-13T08:00:27;8.00;60.40
20866;DHT22;10593;48.398;10.698;2022-11-13T08:02:54;8.00;60.50
20866;DHT22;10593;48.398;10.698;2022-11-13T08:05:20;8.00;60.50
20866;DHT22;10593;48.398;10.698;2022-11-13T08:07:50;8.00;60.40
20866;DHT22;10593;48.398;10.698;2022-11-13T08:10:18;8.00;60.40
20866;DHT22;10593;48.398;10.698;2022-11-13T08:12:45;8.00;60.50
20866;DHT22;10593;48.398;10.698;2022-11-13T08:15:11;8.00;60.40
20866;DHT22;10593;48.398;10.698;2022-11-13T08:17:37;8.10;60.50
20866;DHT22;10593;48.398;10.698;2022-11-13T08:20:04;8.10;60.60
20866;DHT22;10593;48.398;10.698;2022-11-13T08:22:31;8.10;60.60
20866;DHT22;10593;48.398;10.698;2022-11-13T08:24:57;8.10;60.50
20866;DHT22;10593;48.398;10.698;2022-11-13T08:27:23;8.10;60.50
20866;DHT22;10593;48.398;10.698;2022-11-13T08:29:50;8.10;60.60
20866;DHT22;10593;48.398;10.698;2022-11-13T08:32:17;8.10;60.50
20866;DHT22;10593;48.398;10.698;2022-11-13T08:34:44;8.10;60.60
20866;DHT22;10593;48.398;10.698;2022-11-13T08:37:10;8.10;60.60
20866;DHT22;10593;48.398;10.698;2022-11-13T08:39:36;8.10;60.50
20866;DHT22;10593;48.398;10.698;2022-11-13T08:42:02;8.10;60.50
20866;DHT22;10593;48.398;10.698;2022-11-13T08:44:30;8.10;60.50
20866;DHT22;10593;48.398;10.698;2022-11-13T08:46:56;8.20;60.60
20866;DHT22;10593;48.398;10.698;2022-11-13T08:49:22;8.20;60.60
20866;DHT22;10593;48.398;10.698;2022-11-13T08:51:48;8.20;60.60
20866;DHT22;10593;48.398;10.698;2022-11-13T08:54:13;8.20;60.50
20866;DHT22;10593;48.398;10.698;2022-11-13T08:56:39;8.20;60.60
20866;DHT22;10593;48.398;10.698;2022-11-13T08:59:05;8.20;60.20
20866;DHT22;10593;48.398;10.698;2022-11-13T09:01:30;8.10;60.10
20866;DHT22;10593;48.398;10.698;2022-11-13T09:03:56;8.20;60.60
20866;DHT22;10593;48.398;10.698;2022-11-13T09:06:23;8.10;60.60
20866;DHT22;10593;48.398;10.698;2022-11-13T09:08:49;8.10;60.50
20866;DHT22;10593;48.398;10.698;2022-11-13T09:11:15;8.10;60.50
20866;DHT22;10593;48.398;10.698;2022-11-13T09:13:41;8.10;60.50
20866;DHT22;10593;48.398;10.698;2022-11-13T09:16:07;8.10;60.50
20866;DHT22;10593;48.398;10.698;2022-11-13T09:18:33;8.10;60.60
20866;DHT22;10593;48.398;10.698;2022-11-13T09:21:02;8.10;60.60
20866;DHT22;10593;48.398;10.698;2022-11-13T09:23:28;8.20;60.60
20866;DHT22;10593;48.398;10.698;2022-11-13T09:25:54;8.20;60.60
20866;DHT22;10593;48.398;10.698;2022-11-13T09:28:20;8.20;60.60
20866;DHT22;10593;48.398;10.698;2022-11-13T09:30:46;8.20;60.80
20866;DHT22;10593;48.398;10.698;2022-11-13T09:33:12;8.20;61.10
20866;DHT22;10593;48.398;10.698;2022-11-13T09:35:41;8.20;61.30
20866;DHT22;10593;48.398;10.698;2022-11-13T09:38:09;8.30;61.60
20866;DHT22;10593;48.398;10.698;2022-11-13T09:40:57;8.40;61.70
20866;DHT22;10593;48.398;10.698;2022-11-13T09:46:31;8.40;61.50
20866;DHT22;10593;48.398;10.698;2022-11-13T09:49:31;8.40;61.50
20866;DHT22;10593;48.398;10.698;2022-11-13T09:52:10;8.50;61.20
20866;DHT22;10593;48.398;10.698;2022-11-13T09:54:38;8.50;61.30
20866;DHT22;10593;48.398;10.698;2022-11-13T10:00:04;8.60;61.70
20866;DHT22;10593;48.398;10.698;2022-11-13T10:05:58;8.60;61.80
20866;DHT22;10593;48.398;10.698;2022-11-13T10:09:35;8.60;61.80
20866;DHT22;10593;48.398;10.698;2022-11-13T10:11:44;8.60;62.20
20866;DHT22;10593;48.398;10.698;2022-11-13T10:14:29;8.70;62.20
20866;DHT22;10593;48.398;10.698;2022-11-13T10:25:04;8.80;62.40
20866;DHT22;10593;48.398;10.698;2022-11-13T10:27:36;8.90;62.40
20866;DHT22;10593;48.398;10.698;2022-11-13T10:30:05;8.90;62.50
20866;DHT22;10593;48.398;10.698;2022-11-13T10:32:37;9.00;62.70
20866;DHT22;10593;48.398;10.698;2022-11-13T10:37:51;9.10;62.50
20866;DHT22;10593;48.398;10.698;2022-11-13T10:40:39;9.10;62.20
20866;DHT22;10593;48.398;10.698;2022-11-13T10:43:17;9.20;62.40
20866;DHT22;10593;48.398;10.698;2022-11-13T10:45:57;9.20;62.30
20866;DHT22;10593;48.398;10.698;2022-11-13T10:48:30;9.20;62.50
20866;DHT22;10593;48.398;10.698;2022-11-13T10:53:50;9.30;62.40
20866;DHT22;10593;48.398;10.698;2022-11-13T10:56:32;9.30;62.30
20866;DHT22;10593;48.398;10.698;2022-11-13T10:59:13;9.40;62.10
20866;DHT22;10593;48.398;10.698;2022-11-13T11:01:42;9.40;61.80
20866;DHT22;10593;48.398;10.698;2022-11-13T11:04:19;9.50;62.00
20866;DHT22;10593;48.398;10.698;2022-11-13T11:07:02;9.50;61.90
20866;DHT22;10593;48.398;10.698;2022-11-13T11:09:36;9.60;62.00
20866;DHT22;10593;48.398;10.698;2022-11-13T11:14:58;9.60;62.00
20866;DHT22;10593;48.398;10.698;2022-11-13T11:17:45;9.70;62.00
20866;DHT22;10593;48.398;10.698;2022-11-13T11:22:49;9.70;62.10
20866;DHT22;10593;48.398;10.698;2022-11-13T11:30:40;9.90;62.20
20866;DHT22;10593;48.398;10.698;2022-11-13T11:35:53;9.90;62.30
20866;DHT22;10593;48.398;10.698;2022-11-13T11:41:13;10.00;61.00
20866;DHT22;10593;48.398;10.698;2022-11-13T11:46:45;10.10;60.90
20866;DHT22;10593;48.398;10.698;2022-11-13T11:49:11;10.10;60.80
20866;DHT22;10593;48.398;10.698;2022-11-13T12:01:02;10.20;61.10
20866;DHT22;10593;48.398;10.698;2022-11-13T12:04:10;10.30;61.60
20866;DHT22;10593;48.398;10.698;2022-11-13T12:07:04;10.30;61.50
20866;DHT22;10593;48.398;10.698;2022-11-13T12:13:31;10.30;61.40
20866;DHT22;10593;48.398;10.698;2022-11-13T12:19:03;10.40;61.70
20866;DHT22;10593;48.398;10.698;2022-11-13T12:30:39;10.50;61.70
20866;DHT22;10593;48.398;10.698;2022-11-13T12:33:20;10.50;61.80
20866;DHT22;10593;48.398;10.698;2022-11-13T12:35:52;10.50;61.70
20866;DHT22;10593;48.398;10.698;2022-11-13T12:38:31;10.60;61.90
20866;DHT22;10593;48.398;10.698;2022-11-13T12:41:15;10.60;61.80
20866;DHT22;10593;48.398;10.698;2022-11-13T12:46:41;10.70;61.90
20866;DHT22;10593;48.398;10.698;2022-11-13T12:52:03;10.80;61.30
20866;DHT22;10593;48.398;10.698;2022-11-13T12:54:41;10.80;61.20
20866;DHT22;10593;48.398;10.698;2022-11-13T12:57:20;10.90;61.30
20866;DHT22;10593;48.398;10.698;2022-11-13T12:59:51;10.80;61.20
20866;DHT22;10593;48.398;10.698;2022-11-13T13:05:21;10.90;61.30
20866;DHT22;10593;48.398;10.698;2022-11-13T13:16:49;11.10;61.20
20866;DHT22;10593;48.398;10.698;2022-11-13T13:19:30;11.10;60.90
20866;DHT22;10593;48.398;10.698;2022-11-13T13:21:57;11.20;60.70
20866;DHT22;10593;48.398;10.698;2022-11-13T13:24:35;11.20;60.80
20866;DHT22;10593;48.398;10.698;2022-11-13T13:27:26;11.30;60.70
20866;DHT22;10593;48.398;10.698;2022-11-13T13:30:14;11.30;60.70
20866;DHT22;10593;48.398;10.698;2022-11-13T13:36:24;11.40;60.80
20866;DHT22;10593;48.398;10.698;2022-11-13T13:42:09;11.40;60.80
20866;DHT22;10593;48.398;10.698;2022-11-13T13:45:05;11.50;60.70
20866;DHT22;10593;48.398;10.698;2022-11-13T13:47:47;11.50;60.20
20866;DHT22;10593;48.398;10.698;2022-11-13T13:50:24;11.60;60.30
20866;DHT22;10593;48.398;10.698;2022-11-13T13:52:53;11.50;59.80
20866;DHT22;10593;48.398;10.698;2022-11-13T13:55:32;11.60;59.80
20866;DHT22;10593;48.398;10.698;2022-11-13T13:58:03;11.60;59.60
20866;DHT22;10593;48.398;10.698;2022-11-13T14:00:34;11.60;59.50
20866;DHT22;10593;48.398;10.698;2022-11-13T14:03:01;11.70;59.60
20866;DHT22;10593;48.398;10.698;2022-11-13T14:05:30;11.70;59.30
20866;DHT22;10593;48.398;10.698;2022-11-13T14:07:58;11.70;59.20
20866;DHT22;10593;48.398;10.698;2022-11-13T14:10:26;11.70;59.20
20866;DHT22;10593;48.398;10.698;2022-11-13T14:12:53;11.80;59.30
20866;DHT22;10593;48.398;10.698;2022-11-13T14:15:26;11.80;59.30
20866;DHT22;10593;48.398;10.698;2022-11-13T14:23:41;11.80;59.30
20866;DHT22;10593;48.398;10.698;2022-11-13T14:26:10;11.80;59.30
20866;DHT22;10593;48.398;10.698;2022-11-13T14:31:15;11.80;59.30
20866;DHT22;10593;48.398;10.698;2022-11-13T14:33:47;11.80;59.30
20866;DHT22;10593;48.398;10.698;2022-11-13T14:36:15;11.80;59.30
20866;DHT22;10593;48.398;10.698;2022-11-13T14:38:50;11.80;59.40
20866;DHT22;10593;48.398;10.698;2022-11-13T14:44:02;11.80;59.50
20866;DHT22;10593;48.398;10.698;2022-11-13T14:46:34;11.80;59.60
20866;DHT22;10593;48.398;10.698;2022-11-13T14:49:02;11.80;59.60
20866;DHT22;10593;48.398;10.698;2022-11-13T14:51:30;11.80;59.60
20866;DHT22;10593;48.398;10.698;2022-11-13T14:54:05;11.80;59.60
20866;DHT22;10593;48.398;10.698;2022-11-13T14:56:36;11.70;59.60
20866;DHT22;10593;48.398;10.698;2022-11-13T14:59:25;11.70;59.60
20866;DHT22;10593;48.398;10.698;2022-11-13T15:01:54;11.70;59.30
20866;DHT22;10593;48.398;10.698;2022-11-13T15:04:23;11.70;59.50
20866;DHT22;10593;48.398;10.698;2022-11-13T15:06:49;11.60;59.30
20866;DHT22;10593;48.398;10.698;2022-11-13T15:09:20;11.60;59.30
20866;DHT22;10593;48.398;10.698;2022-11-13T15:11:48;11.60;59.20
20866;DHT22;10593;48.398;10.698;2022-11-13T15:14:17;11.60;59.20
20866;DHT22;10593;48.398;10.698;2022-11-13T15:16:48;11.60;59.20
20866;DHT22;10593;48.398;10.698;2022-11-13T15:19:26;11.50;59.00
20866;DHT22;10593;48.398;10.698;2022-11-13T15:21:55;11.50;59.00
20866;DHT22;10593;48.398;10.698;2022-11-13T15:24:22;11.50;59.10
20866;DHT22;10593;48.398;10.698;2022-11-13T15:26:48;11.50;59.00
20866;DHT22;10593;48.398;10.698;2022-11-13T15:29:13;11.40;59.00
20866;DHT22;10593;48.398;10.698;2022-11-13T15:31:41;11.40;59.00
20866;DHT22;10593;48.398;10.698;2022-11-13T15:34:13;11.40;59.00
20866;DHT22;10593;48.398;10.698;2022-11-13T15:36:40;11.40;58.90
20866;DHT22;10593;48.398;10.698;2022-11-13T15:39:07;11.40;58.90
20866;DHT22;10593;48.398;10.698;2022-11-13T15:41:34;11.40;58.70
20866;DHT22;10593;48.398;10.698;2022-11-13T15:44:05;11.30;58.60
20866;DHT22;10593;48.398;10.698;2022-11-13T15:46:36;11.30;58.40
20866;DHT22;10593;48.398;10.698;2022-11-13T15:49:02;11.30;58.50
20866;DHT22;10593;48.398;10.698;2022-11-13T15:51:41;11.30;58.40
20866;DHT22;10593;48.398;10.698;2022-11-13T15:56:46;11.20;58.30
20866;DHT22;10593;48.398;10.698;2022-11-13T15:59:12;11.20;58.30
20866;DHT22;10593;48.398;10.698;2022-11-13T16:01:39;11.20;58.30
20866;DHT22;10593;48.398;10.698;2022-11-13T16:04:06;11.10;58.20
20866;DHT22;10593;48.398;10.698;2022-11-13T16:06:33;11.10;58.00
20866;DHT22;10593;48.398;10.698;2022-11-13T16:09:01;11.10;58.00
20866;DHT22;10593;48.398;10.698;2022-11-13T16:11:33;11.10;57.90
20866;DHT22;10593;48.398;10.698;2022-11-13T16:13:59;11.10;58.00
20866;DHT22;10593;48.398;10.698;2022-11-13T16:16:34;11.00;57.90
20866;DHT22;10593;48.398;10.698;2022-11-13T16:19:03;11.00;57.70
20866;DHT22;10593;48.398;10.698;2022-11-13T16:21:35;11.00;57.80
20866;DHT22;10593;48.398;10.698;2022-11-13T16:24:01;11.00;57.90
20866;DHT22;10593;48.398;10.698;2022-11-13T16:26:27;11.00;57.70
20866;DHT22;10593;48.398;10.698;2022-11-13T16:28:54;10.90;57.70
20866;DHT22;10593;48.398;10.698;2022-11-13T16:31:20;10.90;57.70
20866;DHT22;10593;48.398;10.698;2022-11-13T16:33:46;10.90;57.70
20866;DHT22;10593;48.398;10.698;2022-11-13T16:36:20;10.80;57.50
20866;DHT22;10593;48.398;10.698;2022-11-13T16:38:47;10.80;57.40
20866;DHT22;10593;48.398;10.698;2022-11-13T16:41:15;10.80;57.50
20866;DHT22;10593;48.398;10.698;2022-11-13T16:43:41;10.80;57.50
20866;DHT22;10593;48.398;10.698;2022-11-13T16:46:23;10.70;57.40
20866;DHT22;10593;48.398;10.698;2022-11-13T16:48:51;10.70;57.30
20866;DHT22;10593;48.398;10.698;2022-11-13T16:51:17;10.70;57.40
20866;DHT22;10593;48.398;10.698;2022-11-13T16:53:43;10.70;57.40
20866;DHT22;10593;48.398;10.698;2022-11-13T16:56:29;10.60;57.30
20866;DHT22;10593;48.398;10.698;2022-11-13T16:58:58;10.60;57.20
20866;DHT22;10593;48.398;10.698;2022-11-13T17:01:24;10.60;57.20
20866;DHT22;10593;48.398;10.698;2022-11-13T17:03:50;10.60;57.30
20866;DHT22;10593;48.398;10.698;2022-11-13T17:08:50;10.50;57.20
20866;DHT22;10593;48.398;10.698;2022-11-13T17:11:17;10.50;57.20
20866;DHT22;10593;48.398;10.698;2022-11-13T17:13:54;10.50;57.20
20866;DHT22;10593;48.398;10.698;2022-11-13T17:16:22;10.40;57.20
20866;DHT22;10593;48.398;10.698;2022-11-13T17:18:50;10.50;57.10
20866;DHT22;10593;48.398;10.698;2022-11-13T17:21:18;10.40;57.10
20866;DHT22;10593;48.398;10.698;2022-11-13T17:23:45;10.40;57.00
20866;DHT22;10593;48.398;10.698;2022-11-13T17:26:11;10.40;57.00
20866;DHT22;10593;48.398;10.698;2022-11-13T17:28:37;10.40;57.00
20866;DHT22;10593;48.398;10.698;2022-11-13T17:31:05;10.30;56.90
20866;DHT22;10593;48.398;10.698;2022-11-13T17:33:33;10.30;56.80